Ana Sayfa
METAR-TAF:

METAR-TAF

Havaalanları :

Zinder, Nijer

Enlem: 13-47N, Boylam: 008-59E, yükseklik: 452 m

Güncel hava durumu gözlemi

Rapor saat 18:00 UTC de 2 saat ve 36 dakika önce yapıldı.
Rüzgar güney/güneydoğudan 10 kt
Sıcaklık 30°C
Nem 43%
Basınç 1008 hPa
Görüş mesafesi: 8000 m
4000 ft yükseklikte parçalı bulutlu, Kümülonimbus.
gök gürültülü fırtına

METAR: DRZR 201800Z 16010KT 8000 TS RERA SCT040CB 30/16 Q1008

Saat: 21:36 (20:36 UTC)

Tahmin

Rapor saat 17:00 UTC de 3 saat ve 36 dakika önce yapıldı.
Ayın 20'si saat 18 UTC'den ayın 21'si saat 18 UTC'ye kadar geçerli Tahmin
Rüzgar doğudan 15 kt
Görüş mesafesi: 3000 m
3300 ft yükseklikte parçalı bulutlu
4000 ft yükseklikte az bulutlu, Kümülonimbus.
gök gürültülü fırtına, yağmur
Ayın 20'si saat 2200 UTC'den
Rüzgar batı/güneybatıdan 5 kt
Görüş mesafesi 10 km veya daha fazla
1500 m altında bulut yok ve kümülonimbus yok

TAF: DRZR 201700Z 2018/2118 10015KT 3000 TSRA SCT033 FEW040CB FM202200 24005KT CAVOK

4.000'den fazla havaalanı için hava durumu gözlemleri ve tahminleri (METAR ve TAF raporları).

Kullanılabilir istasyonlar harita üzerinde sarı ve kırmızı noktalarla gösterilir.

İstasyonun adını görmek için fareyi noktanın üzerinde gezdirin.

Sonrasında hava gözlem ve tahminlerini görmek için tıklayın.

Haritayı değiştirmek için: yaklaştırmak için siyah artı işaretli yeşil düğmeye ve uzaklaştırmak için de eksi işaretli düğmeye hızla tıklayın; bitişik haritalar için yeşil okları kullanın.


METAR-TAF: